Time;durP1;ratioP1;P1;durP2;ratioP2;P2;SDS_P1;SDS_P2;PMS_P1;PMS_P2;Temp;Humidity;BMP_temperature;BMP_pressure;BME280_temperature;BME280_humidity;BME280_pressure;Samples;Min_cycle;Max_cycle;Signal;HPM_P1;HPM_P2
2022/09/01 00:01:25;;;;;;;5.00;1.52;;;;;;;20.53;46.45;101655.94;5026608;28;20786;-70
2022/09/01 00:03:54;;;;;;;7.35;1.85;;;;;;;20.56;46.29;101659.88;5024159;28;20053;-71
2022/09/01 00:06:22;;;;;;;7.32;1.95;;;;;;;20.51;46.41;101649.19;5027999;28;20055;-69
2022/09/01 00:08:54;;;;;;;6.05;1.50;;;;;;;20.50;46.61;101653.22;5017858;28;20092;-70
2022/09/01 00:11:23;;;;;;;4.68;1.45;;;;;;;20.46;46.58;101656.13;5028537;28;20057;-70
2022/09/01 00:13:51;;;;;;;7.32;1.80;;;;;;;20.42;46.53;101651.84;5023568;28;20267;-70
2022/09/01 00:16:19;;;;;;;5.32;1.73;;;;;;;20.39;46.93;101657.09;5019323;28;20063;-69
2022/09/01 00:18:53;;;;;;;5.55;1.65;;;;;;;20.37;46.75;101655.97;5026014;28;20142;-73
2022/09/01 00:21:30;;;;;;;4.15;1.65;;;;;;;20.36;47.08;101655.16;5018092;28;20041;-71
2022/09/01 00:23:56;;;;;;;5.28;1.70;;;;;;;20.34;47.01;101657.66;5018423;28;20044;-69
2022/09/01 00:26:23;;;;;;;6.47;1.60;;;;;;;20.33;46.98;101650.44;5021757;28;20053;-70
2022/09/01 00:28:50;;;;;;;19.23;3.78;;;;;;;20.30;47.01;101647.72;5016962;28;20068;-70
2022/09/01 00:31:20;;;;;;;4.75;1.98;;;;;;;20.29;47.26;101651.78;5024502;28;20041;-70
2022/09/01 00:33:48;;;;;;;3.63;1.50;;;;;;;20.27;47.25;101651.41;5028416;28;20064;-68
2022/09/01 00:36:15;;;;;;;5.40;1.63;;;;;;;20.20;47.62;101646.78;5028872;28;20056;-70
2022/09/01 00:38:42;;;;;;;4.53;1.40;;;;;;;20.19;47.64;101641.59;5017290;28;20055;-69
2022/09/01 00:41:10;;;;;;;6.97;1.90;;;;;;;20.13;47.72;101646.97;5024347;28;20071;-70
2022/09/01 00:43:44;;;;;;;4.32;1.52;;;;;;;20.08;47.71;101644.63;5018931;28;20778;-68
2022/09/01 00:46:23;;;;;;;8.02;1.90;;;;;;;20.02;48.33;101648.44;5035150;28;20492;-72
2022/09/01 00:49:01;;;;;;;5.40;1.60;;;;;;;19.96;47.98;101650.19;5012811;28;20083;-70
2022/09/01 00:51:32;;;;;;;5.15;1.42;;;;;;;19.83;48.48;101638.06;5022455;28;20118;-72
2022/09/01 00:54:00;;;;;;;3.60;1.20;;;;;;;19.82;48.54;101645.72;5028303;28;20401;-70
2022/09/01 00:56:29;;;;;;;7.32;1.50;;;;;;;19.76;48.61;101641.84;5024494;28;20053;-70
2022/09/01 00:58:56;;;;;;;2.95;1.48;;;;;;;19.77;48.58;101646.22;5026437;28;20049;-72
2022/09/01 01:01:22;;;;;;;4.50;1.92;;;;;;;19.74;48.82;101643.50;5020589;28;20049;-70
2022/09/01 01:03:49;;;;;;;3.25;1.48;;;;;;;19.67;49.14;101641.66;5032258;28;20073;-70
2022/09/01 01:06:18;;;;;;;4.35;1.33;;;;;;;19.65;49.41;101640.50;5041374;28;20053;-69
2022/09/01 01:08:55;;;;;;;7.18;2.17;;;;;;;19.62;49.23;101638.59;5048615;28;20135;-70
2022/09/01 01:11:23;;;;;;;5.15;2.03;;;;;;;19.56;49.57;101641.13;5044069;28;20915;-68
2022/09/01 01:13:53;;;;;;;4.45;1.17;;;;;;;19.55;49.69;101645.16;5035801;28;20053;-70
2022/09/01 01:16:21;;;;;;;4.63;1.42;;;;;;;19.52;49.58;101643.22;5034101;28;20045;-68
2022/09/01 01:18:48;;;;;;;3.60;1.50;;;;;;;19.47;50.13;101646.53;5038224;28;20504;-69
2022/09/01 01:24:25;;;;;;;4.93;1.65;;;;;;;19.36;50.63;101642.38;5045469;28;20047;-70
2022/09/01 01:26:56;;;;;;;5.43;1.77;;;;;;;19.34;50.29;101644.84;5040017;28;20049;-67
2022/09/01 01:29:22;;;;;;;1.88;1.17;;;;;;;19.28;50.51;101643.78;5038847;28;20059;-69
2022/09/01 01:31:52;;;;;;;6.25;1.70;;;;;;;19.23;50.44;101645.03;5033799;28;20049;-68
2022/09/01 01:34:19;;;;;;;3.75;1.70;;;;;;;19.20;50.51;101645.16;5045725;28;20051;-69
2022/09/01 01:36:46;;;;;;;4.93;1.30;;;;;;;19.12;50.99;101641.69;5033111;28;20051;-68
2022/09/01 01:39:15;;;;;;;4.03;1.65;;;;;;;19.05;51.63;101653.06;5037340;28;20049;-68
2022/09/01 01:41:47;;;;;;;3.95;1.52;;;;;;;19.05;51.27;101647.44;5039586;28;20045;-68
2022/09/01 01:44:17;;;;;;;5.10;1.58;;;;;;;19.01;51.45;101649.56;5032606;28;20065;-68
2022/09/01 01:46:49;;;;;;;3.97;1.70;;;;;;;18.96;51.86;101652.84;5047801;28;20374;-67
2022/09/01 01:49:19;;;;;;;3.67;1.48;;;;;;;18.92;51.90;101657.75;5046312;28;20127;-68
2022/09/01 01:51:56;;;;;;;4.60;1.70;;;;;;;18.84;52.74;101650.72;5039097;28;20413;-68
2022/09/01 01:54:25;;;;;;;8.88;1.55;;;;;;;18.78;52.73;101654.44;5039165;28;20045;-70
2022/09/01 01:56:52;;;;;;;6.28;1.75;;;;;;;18.73;52.88;101658.50;5039656;28;20068;-68
2022/09/01 01:59:19;;;;;;;7.38;1.67;;;;;;;18.67;53.65;101660.25;5041263;28;20053;-67
2022/09/01 02:01:50;;;;;;;5.80;1.50;;;;;;;18.66;53.59;101660.69;5033207;28;20524;-68
2022/09/01 02:04:19;;;;;;;12.50;2.20;;;;;;;18.58;53.93;101660.03;5036500;28;20049;-67
2022/09/01 02:06:47;;;;;;;9.52;1.60;;;;;;;18.58;53.34;101665.63;5037928;28;20045;-67
2022/09/01 02:09:17;;;;;;;6.88;1.70;;;;;;;18.51;54.49;101660.16;5034076;28;20145;-67
2022/09/01 02:11:44;;;;;;;5.63;1.75;;;;;;;18.48;54.51;101663.00;5038532;28;20056;-67
2022/09/01 02:14:12;;;;;;;2.92;1.40;;;;;;;18.47;54.27;101672.66;5032195;28;20809;-68
2022/09/01 02:16:39;;;;;;;5.30;1.63;;;;;;;18.45;54.46;101669.47;5032055;28;20045;-67
2022/09/01 02:19:08;;;;;;;7.07;1.85;;;;;;;18.42;54.91;101668.31;5044127;28;20469;-68
2022/09/01 02:21:35;;;;;;;4.10;1.42;;;;;;;18.39;55.44;101662.81;5034191;28;20072;-67
2022/09/01 02:24:07;;;;;;;4.32;1.83;;;;;;;18.43;55.10;101669.13;5038674;28;20588;-67
2022/09/01 02:26:40;;;;;;;6.35;1.67;;;;;;;18.37;55.36;101666.03;5032234;28;20057;-68
2022/09/01 02:29:17;;;;;;;3.42;1.40;;;;;;;18.33;55.68;101664.47;5036224;28;20052;-68
2022/09/01 02:31:49;;;;;;;7.45;1.80;;;;;;;18.29;56.14;101656.13;5033984;28;20088;-67
2022/09/01 02:34:16;;;;;;;7.97;2.13;;;;;;;18.28;56.21;101660.16;5039956;28;20079;-67
2022/09/01 02:36:47;;;;;;;5.45;1.50;;;;;;;18.26;56.08;101661.78;5045242;28;20136;-67
2022/09/01 02:39:16;;;;;;;6.45;1.67;;;;;;;18.21;56.63;101653.88;5036889;28;20053;-67
2022/09/01 02:41:42;;;;;;;3.22;1.48;;;;;;;18.17;57.47;101662.34;5035628;28;20052;-67
2022/09/01 02:44:13;;;;;;;4.95;1.60;;;;;;;18.18;57.34;101665.91;5028584;28;20054;-66
2022/09/01 02:46:44;;;;;;;6.15;1.67;;;;;;;18.12;57.56;101659.25;5039971;28;20045;-68
2022/09/01 02:49:14;;;;;;;3.72;1.77;;;;;;;18.13;57.58;101663.63;5044615;28;20048;-68
2022/09/01 02:51:47;;;;;;;8.48;1.80;;;;;;;18.13;57.80;101663.63;5046115;28;20080;-69
2022/09/01 02:54:16;;;;;;;5.57;1.58;;;;;;;18.07;57.00;101666.13;5037212;28;20124;-69
2022/09/01 02:56:47;;;;;;;4.80;1.30;;;;;;;18.02;58.87;101658.19;5034269;28;20063;-71
2022/09/01 02:59:15;;;;;;;6.30;1.88;;;;;;;17.99;59.30;101659.84;5036202;28;20510;-69
2022/09/01 03:01:43;;;;;;;6.95;1.83;;;;;;;17.96;58.35;101660.69;5036432;28;20395;-69
2022/09/01 03:04:10;;;;;;;6.00;2.10;;;;;;;17.96;58.53;101657.13;5035429;28;20059;-68
2022/09/01 03:06:38;;;;;;;3.72;1.60;;;;;;;17.91;58.84;101658.38;5044253;28;20420;-70
2022/09/01 03:09:08;;;;;;;6.80;2.03;;;;;;;17.88;59.59;101676.03;5028890;28;20132;-70
2022/09/01 03:11:39;;;;;;;6.32;1.50;;;;;;;17.81;59.72;101669.75;5045952;28;20103;-68
2022/09/01 03:14:06;;;;;;;5.40;1.80;;;;;;;17.78;59.86;101665.78;5040201;28;20055;-70
2022/09/01 03:16:34;;;;;;;5.35;1.75;;;;;;;17.75;60.08;101674.22;5035912;28;20084;-69
2022/09/01 03:19:06;;;;;;;6.97;2.00;;;;;;;17.73;60.80;101671.88;5036991;28;20052;-69
2022/09/01 03:21:32;;;;;;;8.23;1.88;;;;;;;17.77;60.00;101669.00;5040463;28;20560;-68
2022/09/01 03:24:02;;;;;;;9.27;3.47;;;;;;;17.75;60.14;101674.22;5042586;28;20544;-68
2022/09/01 03:26:30;;;;;;;5.57;1.75;;;;;;;17.71;60.40;101679.91;5041289;28;20052;-68
2022/09/01 03:28:57;;;;;;;2.70;1.70;;;;;;;17.68;60.96;101677.13;5040516;28;20057;-67
2022/09/01 03:31:26;;;;;;;4.25;1.90;;;;;;;17.69;61.55;101675.94;5040801;28;20481;-68
2022/09/01 03:33:57;;;;;;;4.13;1.63;;;;;;;17.65;60.96;101678.78;5040235;28;20053;-68
2022/09/01 03:36:24;;;;;;;3.88;1.88;;;;;;;17.65;61.35;101678.78;5040303;28;20059;-68
2022/09/01 03:38:51;;;;;;;5.00;1.80;;;;;;;17.60;62.09;101672.88;5039724;28;20053;-70
2022/09/01 03:41:24;;;;;;;5.22;1.52;;;;;;;17.56;61.81;101669.34;5047693;28;20139;-70
2022/09/01 03:43:56;;;;;;;5.03;1.60;;;;;;;17.57;62.27;101682.09;5042301;28;20118;-69
2022/09/01 03:46:25;;;;;;;4.07;1.77;;;;;;;17.56;62.76;101672.13;5038434;28;20088;-68
2022/09/01 03:49:06;;;;;;;5.13;1.85;;;;;;;17.53;62.36;101675.78;5045498;28;20425;-69
2022/09/01 03:51:34;;;;;;;5.63;1.85;;;;;;;17.49;61.83;101672.25;5045656;28;20049;-68
2022/09/01 03:54:00;;;;;;;3.75;1.83;;;;;;;17.48;63.17;101667.84;5042234;28;20084;-70
2022/09/01 03:56:28;;;;;;;3.38;1.80;;;;;;;17.45;63.37;101671.50;5035548;28;20144;-68
2022/09/01 03:58:57;;;;;;;4.28;1.88;;;;;;;17.38;63.56;101665.97;5043473;28;20057;-70
2022/09/01 04:01:26;;;;;;;6.85;1.85;;;;;;;17.34;63.19;101666.00;5041064;28;20053;-67
2022/09/01 04:03:53;;;;;;;7.10;1.65;;;;;;;17.31;64.03;101668.84;5036766;28;20045;-67
2022/09/01 04:06:22;;;;;;;7.32;1.98;;;;;;;17.26;64.08;101667.34;5042251;28;20055;-68
2022/09/01 04:08:54;;;;;;;4.60;1.70;;;;;;;17.25;64.12;101665.72;5048314;28;20544;-69
2022/09/01 04:11:22;;;;;;;4.97;1.70;;;;;;;17.22;64.07;101663.75;5039963;28;20416;-68
2022/09/01 04:13:50;;;;;;;4.32;1.73;;;;;;;17.17;64.00;101663.44;5044969;28;20053;-69
2022/09/01 04:19:18;;;;;;;3.08;1.83;;;;;;;17.09;64.76;101656.38;5045491;28;20135;-70
2022/09/01 04:21:49;;;;;;;8.38;2.08;;;;;;;17.05;64.83;101662.00;5045805;28;20049;-67
2022/09/01 04:24:17;;;;;;;5.47;1.70;;;;;;;17.04;64.73;101665.25;5036085;28;20049;-71
2022/09/01 04:26:47;;;;;;;6.05;1.92;;;;;;;17.01;65.32;101661.25;5041357;28;20057;-68
2022/09/01 04:29:18;;;;;;;5.40;2.15;;;;;;;16.97;65.15;101663.31;5041765;28;20413;-69
2022/09/01 04:31:47;;;;;;;7.80;2.30;;;;;;;16.90;65.24;101659.78;5031251;28;20056;-67
2022/09/01 04:34:15;;;;;;;9.65;2.47;;;;;;;16.85;67.03;101665.84;5044392;28;20422;-67
2022/09/01 04:36:43;;;;;;;8.95;2.03;;;;;;;16.86;66.07;101670.22;5038838;28;20152;-68
2022/09/01 04:39:12;;;;;;;5.13;1.70;;;;;;;16.83;66.20;101665.47;5041605;28;20048;-67
2022/09/01 04:41:41;;;;;;;12.25;2.30;;;;;;;16.79;66.94;101659.94;5048456;28;20091;-69
2022/09/01 04:44:08;;;;;;;8.68;2.03;;;;;;;16.77;67.08;101667.94;5041293;28;20049;-69
2022/09/01 04:46:41;;;;;;;4.88;1.90;;;;;;;16.78;66.73;101663.16;5035770;28;20045;-70
2022/09/01 04:49:09;;;;;;;8.23;3.20;;;;;;;16.74;66.84;101663.16;5042442;28;20051;-68
2022/09/01 04:51:43;;;;;;;6.03;2.20;;;;;;;16.71;67.13;101663.22;5048040;28;20059;-67
2022/09/01 04:54:13;;;;;;;5.20;2.15;;;;;;;16.70;67.58;101664.41;5046548;28;20052;-68
2022/09/01 04:56:43;;;;;;;6.07;2.20;;;;;;;16.68;67.85;101664.88;5043593;28;20049;-68
2022/09/01 04:59:11;;;;;;;4.72;2.00;;;;;;;16.70;67.74;101670.81;5039699;28;20132;-68
2022/09/01 05:01:43;;;;;;;11.55;2.22;;;;;;;16.66;68.63;101667.25;5043812;28;20045;-68
2022/09/01 05:04:16;;;;;;;3.72;1.73;;;;;;;16.69;68.64;101668.44;5047731;28;20782;-68
2022/09/01 05:06:48;;;;;;;5.72;1.77;;;;;;;16.70;67.78;101658.81;5045233;28;20045;-70
2022/09/01 05:09:16;;;;;;;3.85;1.70;;;;;;;16.67;67.96;101663.25;5039954;28;20876;-68
2022/09/01 05:11:47;;;;;;;4.20;1.52;;;;;;;16.70;67.57;101664.41;5041139;28;20561;-67
2022/09/01 05:14:18;;;;;;;13.38;2.50;;;;;;;16.69;68.07;101655.25;5032726;28;20057;-68
2022/09/01 05:16:45;;;;;;;4.97;2.00;;;;;;;16.74;68.69;101668.75;5039028;28;20076;-67
2022/09/01 05:19:14;;;;;;;6.05;2.05;;;;;;;16.79;68.32;101665.53;5036626;28;20053;-70
2022/09/01 05:21:45;;;;;;;5.00;2.00;;;;;;;16.81;68.08;101667.91;5041482;28;20053;-66
2022/09/01 05:24:18;;;;;;;4.28;1.83;;;;;;;16.83;68.68;101659.88;5034842;28;20152;-69
2022/09/01 05:26:49;;;;;;;6.63;1.85;;;;;;;16.84;67.75;101665.06;5045115;28;20045;-68
2022/09/01 05:29:16;;;;;;;4.10;1.67;;;;;;;16.91;68.38;101669.78;5030450;28;20053;-70
2022/09/01 05:31:45;;;;;;;13.02;2.30;;;;;;;16.99;68.08;101668.47;5044059;28;20057;-68
2022/09/01 05:34:25;;;;;;;11.30;2.13;;;;;;;17.02;68.06;101668.44;5046474;28;20048;-69
2022/09/01 05:36:56;;;;;;;4.53;1.80;;;;;;;17.06;67.99;101674.78;5033792;28;20051;-69
2022/09/01 05:39:23;;;;;;;4.28;1.60;;;;;;;17.09;67.51;101673.94;5036939;28;20069;-70
2022/09/01 05:41:52;;;;;;;8.15;2.17;;;;;;;17.10;67.40;101675.53;5045564;28;20150;-70
2022/09/01 05:44:23;;;;;;;6.85;1.75;;;;;;;17.15;68.38;101677.06;5047125;28;20143;-70
2022/09/01 05:46:51;;;;;;;5.57;1.80;;;;;;;17.17;68.02;101674.63;5035419;28;20569;-67
2022/09/01 05:49:18;;;;;;;6.38;2.20;;;;;;;17.16;67.99;101673.84;5038140;28;20058;-68
2022/09/01 05:51:48;;;;;;;5.65;2.00;;;;;;;17.20;68.07;101673.78;5035532;28;20052;-70
2022/09/01 05:54:20;;;;;;;2.35;1.58;;;;;;;17.20;68.11;101671.81;5052650;28;20132;-68
2022/09/01 05:56:47;;;;;;;3.67;1.83;;;;;;;17.26;68.13;101675.72;5040851;28;20541;-71
2022/09/01 05:59:14;;;;;;;6.32;1.92;;;;;;;17.28;67.58;101678.88;5040136;28;20420;-69
2022/09/01 06:01:51;;;;;;;2.63;1.60;;;;;;;17.30;67.27;101673.66;5045945;28;20057;-70
2022/09/01 06:04:19;;;;;;;7.72;2.08;;;;;;;17.34;67.53;101684.78;5045234;28;20072;-69
2022/09/01 06:06:48;;;;;;;8.25;2.45;;;;;;;17.37;67.76;101681.16;5048229;28;20049;-69
2022/09/01 06:09:36;;;;;;;3.15;1.80;;;;;;;17.40;67.47;101685.91;5042804;28;20057;-69
2022/09/01 06:12:04;;;;;;;3.05;1.63;;;;;;;17.45;66.81;101686.25;5037920;28;20521;-69
2022/09/01 06:14:31;;;;;;;4.60;1.92;;;;;;;17.48;66.65;101690.22;5041376;28;20053;-69
2022/09/01 06:16:57;;;;;;;6.47;2.05;;;;;;;17.54;66.56;101691.34;5037869;28;20045;-68
2022/09/01 06:19:24;;;;;;;7.85;2.00;;;;;;;17.58;66.35;101695.69;5035421;28;20049;-69
2022/09/01 06:21:52;;;;;;;8.35;1.95;;;;;;;17.65;66.20;101692.78;5042409;28;20131;-66
2022/09/01 06:24:18;;;;;;;8.73;2.25;;;;;;;17.66;65.87;101693.56;5030918;28;20079;-67
2022/09/01 06:26:45;;;;;;;5.65;1.90;;;;;;;17.69;65.73;101684.34;5040769;28;20072;-67
2022/09/01 06:29:14;;;;;;;4.07;2.13;;;;;;;17.76;66.21;101690.59;5041851;28;20045;-67
2022/09/01 06:31:42;;;;;;;3.45;1.52;;;;;;;17.83;65.92;101696.09;5033784;28;20052;-73
2022/09/01 06:34:15;;;;;;;3.38;1.83;;;;;;;17.87;65.26;101688.44;5037940;28;20049;-69
2022/09/01 06:36:44;;;;;;;6.10;2.22;;;;;;;17.92;65.26;101695.56;5038342;28;20063;-66
2022/09/01 06:39:18;;;;;;;6.70;2.28;;;;;;;17.99;64.97;101701.84;5036437;28;20072;-67
2022/09/01 06:41:46;;;;;;;5.32;2.25;;;;;;;18.03;64.85;101702.56;5036425;28;20050;-68
2022/09/01 06:44:13;;;;;;;4.75;1.88;;;;;;;18.08;64.82;101695.69;5046216;28;20053;-65
2022/09/01 06:46:40;;;;;;;13.63;3.45;;;;;;;18.14;64.49;101694.00;5043312;28;20091;-66
2022/09/01 06:49:10;;;;;;;6.15;1.85;;;;;;;18.22;64.49;101708.69;5037149;28;20057;-67
2022/09/01 06:51:36;;;;;;;6.07;2.17;;;;;;;18.29;64.34;101705.78;5036498;28;20576;-66
2022/09/01 06:54:03;;;;;;;9.73;2.20;;;;;;;18.35;63.89;101702.03;5034429;28;20556;-68
2022/09/01 06:56:36;;;;;;;8.10;2.47;;;;;;;18.39;63.77;101694.41;5034211;28;20104;-66
2022/09/01 06:59:14;;;;;;;7.00;2.15;;;;;;;18.45;63.54;101687.09;5043220;28;20045;-66
2022/09/01 07:01:41;;;;;;;6.55;2.08;;;;;;;18.55;63.43;101702.13;5032135;28;20141;-67
2022/09/01 07:04:08;;;;;;;6.45;2.22;;;;;;;18.65;63.54;101699.13;5038658;28;20073;-68
2022/09/01 07:06:56;;;;;;;5.53;1.95;;;;;;;18.77;63.25;101697.72;5038800;28;20060;-68
2022/09/01 07:09:42;;;;;;;7.13;2.20;;;;;;;18.90;63.16;101690.25;5029749;28;20448;-67
2022/09/01 07:12:30;;;;;;;8.55;2.60;;;;;;;19.02;62.06;101687.59;5047730;28;20048;-67
2022/09/01 07:14:58;;;;;;;9.48;2.17;;;;;;;19.11;61.79;101696.22;5031309;28;20058;-68
2022/09/01 07:17:57;;;;;;;10.15;2.10;;;;;;;19.23;61.11;101701.16;5036943;28;20053;-69
2022/09/01 07:20:27;;;;;;;11.65;2.45;;;;;;;19.30;60.62;101695.44;5040651;28;20151;-71
2022/09/01 07:22:56;;;;;;;5.43;2.00;;;;;;;19.40;60.80;101696.41;5041755;28;20076;-69
2022/09/01 07:25:42;;;;;;;7.35;2.28;;;;;;;19.48;60.53;101695.81;5037097;28;20548;-66
2022/09/01 07:28:31;;;;;;;6.75;2.10;;;;;;;19.60;59.93;101697.16;5041119;28;20049;-68
2022/09/01 07:31:07;;;;;;;6.20;2.10;;;;;;;19.68;59.06;101693.00;5041395;28;20049;-65
2022/09/01 07:33:57;;;;;;;9.40;1.95;;;;;;;19.77;58.95;101690.34;5029244;28;20057;-66
2022/09/01 07:36:44;;;;;;;5.88;1.75;;;;;;;19.87;58.18;101701.34;5041898;28;20045;-67
2022/09/01 07:39:31;;;;;;;4.60;1.67;;;;;;;19.96;57.82;101692.31;5042126;28;20072;-66
2022/09/01 07:42:17;;;;;;;5.93;1.92;;;;;;;20.05;57.10;101686.88;5042553;28;20051;-69
2022/09/01 07:45:09;;;;;;;4.68;1.73;;;;;;;20.15;56.51;101695.06;5032210;28;20056;-65
2022/09/01 07:47:52;;;;;;;7.90;2.47;;;;;;;20.26;56.67;101687.16;5040587;28;20053;-68
2022/09/01 07:50:19;;;;;;;8.70;2.35;;;;;;;20.40;56.48;101697.25;5038758;28;20115;-65
2022/09/01 07:53:07;;;;;;;9.88;2.17;;;;;;;20.54;55.72;101685.63;5029343;28;20048;-65
2022/09/01 07:55:34;;;;;;;6.70;1.90;;;;;;;20.60;54.77;101683.06;5042677;28;20156;-67
2022/09/01 07:58:01;;;;;;;6.60;2.08;;;;;;;20.67;55.17;101692.09;5036507;28;20053;-67
2022/09/01 08:00:27;;;;;;;4.30;1.45;;;;;;;20.75;54.24;101685.03;5034649;28;20061;-65
2022/09/01 08:02:57;;;;;;;5.22;1.73;;;;;;;20.85;54.06;101691.63;5032356;28;20045;-65
2022/09/01 08:05:25;;;;;;;9.25;2.00;;;;;;;20.96;53.89;101689.31;5036329;28;20052;-65
2022/09/01 08:07:52;;;;;;;6.82;2.38;;;;;;;21.05;53.40;101692.25;5046007;28;20056;-66
2022/09/01 08:10:20;;;;;;;6.35;2.60;;;;;;;21.14;52.74;101687.59;5035040;28;20144;-65
2022/09/01 08:12:47;;;;;;;4.00;1.50;;;;;;;21.32;52.87;101689.84;5042796;28;20057;-68
2022/09/01 08:15:22;;;;;;;4.85;1.70;;;;;;;21.44;51.26;101695.53;5043137;28;20060;-66
2022/09/01 08:18:09;;;;;;;9.43;2.00;;;;;;;21.55;51.23;101701.63;5033791;28;20068;-68
2022/09/01 08:20:44;;;;;;;7.70;1.75;;;;;;;21.59;50.48;101699.47;5039692;28;20055;-68
2022/09/01 08:23:13;;;;;;;8.85;1.60;;;;;;;21.65;50.45;101697.69;5044210;28;20095;-64
2022/09/01 08:25:41;;;;;;;2.63;1.27;;;;;;;21.68;50.09;101698.81;5046783;28;20045;-67
2022/09/01 08:28:09;;;;;;;14.23;2.10;;;;;;;21.78;50.18;101697.72;5041111;28;20137;-66
2022/09/01 08:30:39;;;;;;;5.32;1.63;;;;;;;21.87;50.00;101695.78;5043613;28;20052;-66
2022/09/01 08:33:05;;;;;;;7.93;1.60;;;;;;;21.98;49.96;101698.28;5039985;28;20060;-66
2022/09/01 08:35:38;;;;;;;8.98;1.88;;;;;;;22.06;49.21;101703.22;5037691;28;20041;-71
2022/09/01 08:38:06;;;;;;;5.38;1.60;;;;;;;22.17;48.88;101697.25;5041473;28;20087;-68
2022/09/01 08:40:33;;;;;;;5.80;1.50;;;;;;;22.24;48.43;101694.97;5039711;28;20049;-68
2022/09/01 08:43:25;;;;;;;11.20;1.58;;;;;;;22.38;47.65;101699.34;5041007;28;20052;-67
2022/09/01 08:46:03;;;;;;;8.82;1.70;;;;;;;22.49;47.22;101694.13;5046033;28;20135;-68
2022/09/01 08:48:33;;;;;;;1.80;1.00;;;;;;;22.56;46.20;101688.25;5047470;28;20064;-64
2022/09/01 08:51:30;;;;;;;4.80;1.25;;;;;;;22.60;45.49;101684.06;5031837;28;20528;-66
2022/09/01 08:54:03;;;;;;;2.70;1.27;;;;;;;22.71;45.81;101686.50;5043677;28;20085;-66
2022/09/01 08:56:31;;;;;;;3.28;1.25;;;;;;;22.78;45.33;101689.84;5044156;28;20053;-65
2022/09/01 08:58:58;;;;;;;5.18;1.30;;;;;;;22.91;45.45;101683.38;5050161;28;20057;-66
2022/09/01 09:01:44;;;;;;;3.80;1.25;;;;;;;23.02;44.81;101686.59;5048589;28;20469;-67
2022/09/01 09:04:19;;;;;;;4.88;1.70;;;;;;;23.11;44.37;101690.25;5049932;28;20048;-66
2022/09/01 09:07:00;;;;;;;;;;;;;;;23.20;43.50;101686.69;5038974;28;20528;-67
2022/09/01 09:09:49;;;;;;;4.97;1.50;;;;;;;23.31;43.70;101678.63;5046358;28;20401;-69
2022/09/01 09:12:39;;;;;;;7.20;1.50;;;;;;;23.42;42.34;101676.22;5036379;28;20148;-66
2022/09/01 09:15:36;;;;;;;7.55;1.55;;;;;;;23.56;42.51;101672.81;5046545;28;20652;-66
2022/09/01 09:18:32;;;;;;;3.30;1.67;;;;;;;23.67;41.54;101668.31;5036251;28;20041;-67
2022/09/01 09:21:18;;;;;;;4.70;1.27;;;;;;;23.80;41.43;101674.66;5034860;28;20045;-68
2022/09/01 09:23:52;;;;;;;4.82;1.25;;;;;;;23.92;41.13;101668.09;5034977;28;20128;-66
2022/09/01 09:26:19;;;;;;;4.20;1.30;;;;;;;24.01;40.55;101670.19;5043939;28;20528;-67
2022/09/01 09:28:48;;;;;;;2.75;1.13;;;;;;;24.04;40.69;101661.56;5035398;28;20065;-66
2022/09/01 09:31:42;;;;;;;3.72;1.30;;;;;;;24.07;39.85;101669.13;5042620;28;20080;-69
2022/09/01 09:34:36;;;;;;;2.88;0.93;;;;;;;24.14;40.06;101654.69;5031104;28;20053;-64
2022/09/01 09:37:15;;;;;;;6.43;1.52;;;;;;;24.24;40.02;101652.66;5034486;28;20497;-65
2022/09/01 09:39:42;;;;;;;9.88;1.75;;;;;;;24.28;39.84;101654.06;5036154;28;20163;-68
2022/09/01 09:42:13;;;;;;;1.83;1.00;;;;;;;24.40;39.93;101653.13;5044667;28;20080;-65
2022/09/01 09:44:51;;;;;;;4.82;1.52;;;;;;;24.47;39.39;101655.66;5037281;28;20045;-67
2022/09/01 09:47:34;;;;;;;5.43;1.45;;;;;;;24.59;38.75;101654.72;5028044;28;20049;-67
2022/09/01 09:50:18;;;;;;;6.00;1.48;;;;;;;24.74;38.44;101646.44;5020275;28;20061;-68
2022/09/01 09:52:46;;;;;;;4.07;1.25;;;;;;;24.85;39.59;101641.84;5021770;28;20049;-67
2022/09/01 09:55:28;;;;;;;3.78;1.20;;;;;;;24.85;38.13;101649.56;5025854;28;20725;-70
2022/09/01 09:58:08;;;;;;;5.43;1.30;;;;;;;24.99;38.55;101637.56;5032335;28;20049;-68
2022/09/01 10:00:35;;;;;;;1.75;0.95;;;;;;;25.04;38.32;101639.78;5017047;28;20191;-67
2022/09/01 10:03:08;;;;;;;4.63;1.85;;;;;;;25.18;37.72;101633.47;5017659;28;21780;-67
2022/09/01 10:05:47;;;;;;;5.40;1.30;;;;;;;25.20;37.53;101630.91;5021559;28;20076;-68
2022/09/01 10:08:44;;;;;;;5.55;1.10;;;;;;;25.31;36.91;101630.44;5024264;28;20084;-70
2022/09/01 10:11:26;;;;;;;6.95;1.63;;;;;;;25.31;36.58;101619.88;5023321;28;20053;-69
2022/09/01 10:14:03;;;;;;;4.82;1.30;;;;;;;25.49;37.15;101621.88;5014525;28;20053;-70
2022/09/01 10:16:33;;;;;;;5.05;1.60;;;;;;;25.62;37.54;101613.94;5028896;28;20045;-69
2022/09/01 10:19:01;;;;;;;5.50;1.40;;;;;;;25.74;37.06;101604.47;5021588;28;20103;-68
2022/09/01 10:21:36;;;;;;;3.10;1.30;;;;;;;25.79;36.99;101615.91;5029766;28;20052;-66
2022/09/01 10:24:19;;;;;;;4.03;1.00;;;;;;;25.86;36.25;101611.94;5021893;28;20048;-71
2022/09/01 10:26:56;;;;;;;6.90;1.45;;;;;;;26.02;36.18;101611.56;5026380;28;20068;-67
2022/09/01 10:29:28;;;;;;;2.58;1.23;;;;;;;26.15;36.23;101615.69;5023668;28;20140;-67
2022/09/01 10:32:07;;;;;;;6.80;1.10;;;;;;;26.30;35.42;101618.59;5032948;28;20064;-66
2022/09/01 10:34:54;;;;;;;4.75;1.05;;;;;;;26.32;34.20;101621.75;5019013;28;20045;-65
2022/09/01 10:37:25;;;;;;;3.83;1.52;;;;;;;26.32;33.95;101616.06;5023098;28;20045;-68
2022/09/01 10:40:33;;;;;;;3.80;1.20;;;;;;;26.29;33.83;101614.19;5026631;28;20488;-66
2022/09/01 10:43:26;;;;;;;6.50;1.98;;;;;;;26.46;34.12;101609.66;5024518;28;20706;-67
2022/09/01 10:45:53;;;;;;;2.20;1.30;;;;;;;26.61;34.50;101594.25;5023681;28;20049;-67
2022/09/01 10:48:33;;;;;;;5.78;1.60;;;;;;;26.81;34.30;101597.19;5026420;28;20065;-69
2022/09/01 10:51:13;;;;;;;3.45;1.90;;;;;;;26.91;34.39;101593.00;5017034;28;20142;-69
2022/09/01 10:53:49;;;;;;;3.03;1.08;;;;;;;27.05;33.41;101588.56;5029953;28;20055;-69
2022/09/01 10:56:41;;;;;;;5.47;1.85;;;;;;;27.28;33.78;101591.34;5024700;28;20056;-69
2022/09/01 10:59:22;;;;;;;5.85;1.48;;;;;;;27.86;33.66;101583.94;5023300;28;20045;-70
2022/09/01 11:02:10;;;;;;;4.72;1.10;;;;;;;28.25;32.04;101582.41;5016506;28;20829;-71
2022/09/01 11:04:54;;;;;;;3.08;1.48;;;;;;;28.19;32.47;101595.78;5013730;28;20782;-67
2022/09/01 11:07:22;;;;;;;2.63;1.35;;;;;;;28.22;32.88;101589.88;5017958;28;20060;-67
2022/09/01 11:10:22;;;;;;;3.78;1.60;;;;;;;28.26;32.26;101593.28;5022217;28;20064;-68
2022/09/01 11:13:25;;;;;;;4.00;1.50;;;;;;;28.19;32.55;101579.50;5019514;28;20166;-68
2022/09/01 11:15:53;;;;;;;2.28;1.38;;;;;;;28.30;32.97;101581.66;5019843;28;20057;-68
2022/09/01 11:18:26;;;;;;;5.05;1.50;;;;;;;28.45;32.67;101577.47;5027149;28;20067;-67
2022/09/01 11:20:54;;;;;;;1.48;1.35;;;;;;;28.56;32.28;101571.94;5023825;28;20901;-67
2022/09/01 11:23:29;;;;;;;6.15;1.48;;;;;;;28.68;32.48;101576.44;5020805;28;20136;-67
2022/09/01 11:25:58;;;;;;;3.80;1.60;;;;;;;28.78;32.30;101574.22;5017942;28;20152;-69
2022/09/01 11:28:46;;;;;;;3.95;1.50;;;;;;;28.87;31.96;101574.03;5024004;28;20055;-67
2022/09/01 11:31:22;;;;;;;5.70;1.70;;;;;;;29.04;31.67;101570.09;5024017;28;20084;-67
2022/09/01 11:33:57;;;;;;;4.68;1.70;;;;;;;29.01;31.31;101564.56;5025511;28;20147;-68
2022/09/01 11:36:58;;;;;;;5.25;1.90;;;;;;;29.24;31.06;101558.59;5027767;28;20037;-69
2022/09/01 11:39:40;;;;;;;4.63;2.10;;;;;;;29.36;30.52;101571.63;5029497;28;20049;-71
2022/09/01 11:42:26;;;;;;;4.88;1.48;;;;;;;29.26;31.09;101567.41;5023356;28;20151;-70
2022/09/01 11:45:01;;;;;;;4.75;1.83;;;;;;;29.32;31.29;101561.75;5029063;28;20083;-67
2022/09/01 11:47:32;;;;;;;6.00;1.60;;;;;;;28.99;31.56;101565.09;5029078;28;20041;-69
2022/09/01 11:50:07;;;;;;;7.70;1.85;;;;;;;28.56;31.80;101571.94;5028664;28;20060;-69
2022/09/01 11:52:37;;;;;;;4.82;1.85;;;;;;;28.42;32.22;101557.75;5021962;28;20045;-67
2022/09/01 11:55:05;;;;;;;8.25;1.60;;;;;;;28.45;32.39;101557.56;5032430;28;20053;-68
2022/09/01 11:57:38;;;;;;;4.82;1.73;;;;;;;28.65;32.16;101553.91;5035541;28;20051;-72